Time;durP1;ratioP1;P1;durP2;ratioP2;P2;SDS_P1;SDS_P2;PMS_P1;PMS_P2;Temp;Humidity;BMP_temperature;BMP_pressure;BME280_temperature;BME280_humidity;BME280_pressure;Samples;Min_cycle;Max_cycle;Signal;HPM_P1;HPM_P2
2023/06/14 00:00:40;;;;;;;0.82;0.82;;;;;;;13.11;71.82;99314.50;5037260;28;20453;-63
2023/06/14 00:03:09;;;;;;;;;;;;;;;13.12;71.76;99320.47;5037602;28;20049;-63
2023/06/14 00:05:42;;;;;;;0.40;0.40;;;;;;;13.09;72.02;99318.81;5036873;28;19927;-63
2023/06/14 00:08:12;;;;;;;0.55;0.55;;;;;;;13.04;72.35;99312.03;5036729;28;20377;-63
2023/06/14 00:10:42;;;;;;;0.93;0.85;;;;;;;13.10;72.01;99319.66;5036782;28;20052;-62
2023/06/14 00:13:12;;;;;;;1.10;1.00;;;;;;;13.05;71.89;99312.00;5036733;28;20069;-63
2023/06/14 00:15:42;;;;;;;1.58;1.35;;;;;;;13.14;71.75;99309.34;5036715;28;20041;-62
2023/06/14 00:18:11;;;;;;;0.50;0.50;;;;;;;13.24;71.17;99317.72;5036865;28;20042;-63
2023/06/14 00:20:42;;;;;;;0.63;0.63;;;;;;;13.24;71.24;99313.44;5036869;28;20497;-63
2023/06/14 00:23:11;;;;;;;0.65;0.65;;;;;;;13.30;71.24;99313.31;5036797;28;20559;-63
2023/06/14 00:25:40;;;;;;;2.15;1.15;;;;;;;13.26;71.03;99311.69;5037372;28;20049;-62
2023/06/14 00:28:09;;;;;;;0.37;0.37;;;;;;;13.25;71.30;99317.66;5036721;28;20041;-62
2023/06/14 00:30:40;;;;;;;0.80;0.80;;;;;;;13.17;71.17;99311.81;5036691;28;20064;-63
2023/06/14 00:33:09;;;;;;;0.52;0.52;;;;;;;13.21;71.22;99317.75;5036292;28;20128;-62
2023/06/14 00:35:37;;;;;;;1.23;0.98;;;;;;;13.14;71.47;99314.47;5034950;28;20513;-63
2023/06/14 00:38:06;;;;;;;0.63;0.63;;;;;;;13.21;71.48;99323.72;5035432;28;20061;-62
2023/06/14 00:40:35;;;;;;;0.53;0.53;;;;;;;13.01;71.71;99315.47;5036192;28;20103;-62
2023/06/14 00:43:04;;;;;;;0.60;0.60;;;;;;;12.98;72.45;99324.94;5035028;28;20041;-62
2023/06/14 00:45:35;;;;;;;1.13;1.05;;;;;;;12.96;72.43;99319.84;5036222;28;20779;-63
2023/06/14 00:48:07;;;;;;;0.60;0.60;;;;;;;13.07;72.43;99315.44;5036126;28;20510;-63
2023/06/14 00:50:38;;;;;;;0.93;0.77;;;;;;;13.13;72.14;99323.00;5034934;28;20073;-62
2023/06/14 00:53:07;;;;;;;0.50;0.50;;;;;;;13.16;71.72;99314.41;5034793;28;20042;-62
2023/06/14 00:55:36;;;;;;;0.50;0.50;;;;;;;13.12;72.02;99313.63;5035944;28;20229;-63
2023/06/14 00:58:05;;;;;;;0.77;0.77;;;;;;;13.05;71.89;99319.69;5036146;28;20049;-63
2023/06/14 01:00:34;;;;;;;1.10;0.60;;;;;;;12.95;71.93;99319.88;5036125;28;20053;-63
2023/06/14 01:03:21;;;;;;;0.50;0.50;;;;;;;12.87;72.33;99307.19;5035909;28;20061;-62
2023/06/14 01:06:05;;;;;;;5.72;1.23;;;;;;;12.91;72.49;99313.94;5036013;28;20475;-63
2023/06/14 01:08:46;;;;;;;0.90;0.90;;;;;;;13.02;72.16;99311.22;5034882;28;20037;-63
2023/06/14 01:11:23;;;;;;;0.60;0.60;;;;;;;13.01;71.70;99302.69;5034790;28;20076;-62
2023/06/14 01:13:54;;;;;;;1.80;1.15;;;;;;;13.07;71.85;99312.88;5035656;28;20045;-62
2023/06/14 01:16:24;;;;;;;0.43;0.43;;;;;;;13.10;71.61;99320.47;5034466;28;20582;-62
2023/06/14 01:18:57;;;;;;;0.40;0.40;;;;;;;13.04;71.41;99315.44;5035476;28;20041;-63
2023/06/14 01:21:28;;;;;;;0.60;0.60;;;;;;;12.96;71.55;99312.16;5035565;28;20053;-62
2023/06/14 01:23:59;;;;;;;0.60;0.60;;;;;;;12.95;71.90;99310.47;5035638;28;20045;-62
2023/06/14 01:26:29;;;;;;;3.92;0.75;;;;;;;12.89;71.76;99297.75;5034238;28;20046;-62
2023/06/14 01:29:01;;;;;;;0.30;0.30;;;;;;;12.93;71.56;99314.78;5035229;28;20041;-62
2023/06/14 01:31:39;;;;;;;0.43;0.43;;;;;;;12.95;71.91;99300.22;5035295;28;20607;-63
2023/06/14 01:34:09;;;;;;;1.10;1.00;;;;;;;12.90;71.52;99304.56;5035263;28;20092;-62
2023/06/14 01:36:39;;;;;;;;;;;;;;;12.83;71.70;99300.44;5035893;28;20411;-62
2023/06/14 01:39:13;;;;;;;0.80;0.80;;;;;;;12.68;71.89;99285.28;5035418;28;19928;-62
2023/06/14 01:41:42;;;;;;;0.35;0.35;;;;;;;12.79;71.74;99309.00;5035374;28;20492;-62
2023/06/14 01:44:11;;;;;;;2.40;0.82;;;;;;;12.82;71.54;99308.97;5035026;28;20121;-62
2023/06/14 01:46:43;;;;;;;0.82;0.82;;;;;;;12.76;71.33;99303.97;5035283;28;20522;-62
2023/06/14 01:49:12;;;;;;;1.27;0.95;;;;;;;12.59;71.10;99285.44;5035280;28;20037;-62
2023/06/14 01:51:41;;;;;;;0.50;0.50;;;;;;;12.71;71.14;99306.59;5034944;28;20061;-62
2023/06/14 01:54:11;;;;;;;0.60;0.60;;;;;;;12.71;71.11;99306.59;5034007;28;20403;-62
2023/06/14 01:56:40;;;;;;;0.73;0.70;;;;;;;12.70;71.30;99311.72;5035113;28;20050;-62
2023/06/14 01:59:10;;;;;;;1.20;0.70;;;;;;;12.72;71.06;99318.50;5033872;28;20049;-63
2023/06/14 02:01:39;;;;;;;0.53;0.53;;;;;;;12.69;71.04;99303.19;5033591;28;20046;-63
2023/06/14 02:04:08;;;;;;;12.63;9.73;;;;;;;12.62;71.18;99306.72;5033593;28;20775;-62
2023/06/14 02:06:39;;;;;;;0.65;0.65;;;;;;;12.62;71.22;99313.56;5034756;28;20519;-62
2023/06/14 02:09:08;;;;;;;0.80;0.77;;;;;;;12.57;71.19;99305.09;5033375;28;20037;-62
2023/06/14 02:11:38;;;;;;;0.80;0.80;;;;;;;12.60;71.18;99307.59;5033627;28;20406;-62
2023/06/14 02:14:10;;;;;;;0.85;0.77;;;;;;;12.59;71.08;99311.03;5034465;28;20056;-63
2023/06/14 02:16:39;;;;;;;0.50;0.50;;;;;;;12.53;71.37;99311.13;5034356;28;20057;-62
2023/06/14 02:19:09;;;;;;;0.50;0.50;;;;;;;12.50;71.59;99311.19;5033268;28;20483;-62
2023/06/14 02:21:38;;;;;;;0.47;0.47;;;;;;;12.40;72.01;99313.03;5033251;28;20068;-62
2023/06/14 02:24:07;;;;;;;0.40;0.40;;;;;;;12.29;72.15;99306.34;5034254;28;20099;-62
2023/06/14 02:26:38;;;;;;;2.65;1.63;;;;;;;12.31;72.44;99307.19;5034165;28;20060;-62
2023/06/14 02:29:09;;;;;;;0.30;0.30;;;;;;;12.26;72.67;99314.09;5034530;28;20048;-62
2023/06/14 02:31:38;;;;;;;1.25;1.15;;;;;;;12.22;72.81;99304.72;5034496;28;20055;-62
2023/06/14 02:34:08;;;;;;;0.75;0.75;;;;;;;12.19;73.08;99310.72;5033977;28;20045;-62
2023/06/14 02:36:41;;;;;;;0.60;0.60;;;;;;;12.18;73.21;99318.44;5034088;28;20056;-62
2023/06/14 02:39:10;;;;;;;1.30;1.25;;;;;;;12.18;73.20;99297.97;5033188;28;20101;-62
2023/06/14 02:41:41;;;;;;;0.30;0.30;;;;;;;12.27;73.11;99308.06;5034295;28;20051;-62
2023/06/14 02:44:12;;;;;;;0.47;0.47;;;;;;;12.23;73.32;99314.13;5032832;28;20049;-62
2023/06/14 02:46:43;;;;;;;0.90;0.90;;;;;;;12.25;73.18;99310.66;5033883;28;20091;-62
2023/06/14 02:49:12;;;;;;;3.97;2.35;;;;;;;12.27;73.22;99310.63;5032861;28;20045;-62
2023/06/14 02:51:41;;;;;;;0.57;0.57;;;;;;;12.28;73.38;99305.53;5034155;28;20046;-62
2023/06/14 02:54:10;;;;;;;0.63;0.63;;;;;;;12.38;72.99;99312.19;5034076;28;20099;-62
2023/06/14 02:56:41;;;;;;;0.32;0.32;;;;;;;12.41;72.84;99311.28;5033746;28;20057;-62
2023/06/14 02:59:11;;;;;;;1.02;0.93;;;;;;;12.39;72.62;99302.78;5032499;28;20095;-62
2023/06/14 03:01:41;;;;;;;0.70;0.70;;;;;;;12.44;72.58;99303.56;5032787;28;20045;-62
2023/06/14 03:04:13;;;;;;;0.57;0.50;;;;;;;12.46;72.56;99304.41;5032795;28;20073;-62
2023/06/14 03:06:50;;;;;;;0.50;0.50;;;;;;;12.49;72.36;99299.25;5034669;28;20498;-62
2023/06/14 03:09:21;;;;;;;0.50;0.50;;;;;;;12.49;72.01;99294.97;5032589;28;20053;-63
2023/06/14 03:11:52;;;;;;;5.43;0.88;;;;;;;12.47;72.26;99298.41;5032477;28;20042;-62
2023/06/14 03:14:21;;;;;;;0.73;0.73;;;;;;;12.45;72.15;99300.97;5033591;28;20141;-62
2023/06/14 03:16:56;;;;;;;0.65;0.65;;;;;;;12.35;72.67;99303.72;5032356;28;20049;-62
2023/06/14 03:19:26;;;;;;;0.82;0.82;;;;;;;12.37;72.50;99309.66;5031776;28;20549;-62
2023/06/14 03:21:57;;;;;;;0.30;0.30;;;;;;;12.29;72.80;99311.47;5033448;28;20103;-62
2023/06/14 03:24:31;;;;;;;0.50;0.50;;;;;;;12.22;73.27;99315.81;5032575;28;20443;-62
2023/06/14 03:27:02;;;;;;;0.32;0.32;;;;;;;12.09;73.67;99310.00;5033521;28;20056;-62
2023/06/14 03:29:31;;;;;;;0.63;0.63;;;;;;;12.18;74.09;99313.31;5033258;28;20077;-63
2023/06/14 03:32:02;;;;;;;4.90;1.23;;;;;;;12.34;73.59;99314.81;5032236;28;20166;-62
2023/06/14 03:34:38;;;;;;;0.40;0.40;;;;;;;12.50;73.45;99314.56;5033121;28;20069;-62
2023/06/14 03:37:08;;;;;;;0.43;0.43;;;;;;;12.60;73.03;99312.72;5033408;28;20109;-62
2023/06/14 03:39:37;;;;;;;0.63;0.63;;;;;;;12.67;72.76;99314.31;5032171;28;20048;-62
2023/06/14 03:42:08;;;;;;;0.80;0.77;;;;;;;12.73;72.45;99309.13;5032490;28;20045;-62
2023/06/14 03:44:38;;;;;;;5.25;1.98;;;;;;;12.80;72.26;99315.84;5033580;28;20275;-62
2023/06/14 03:47:07;;;;;;;;;;;;;;;12.84;72.16;99306.41;5032758;28;20064;-62
2023/06/14 03:49:36;;;;;;;1.38;1.08;;;;;;;12.88;72.02;99314.00;5032070;28;20375;-63
2023/06/14 03:52:06;;;;;;;1.05;0.98;;;;;;;12.89;71.80;99320.81;5032035;28;20042;-62
2023/06/14 03:54:37;;;;;;;0.50;0.50;;;;;;;12.98;71.51;99320.66;5033746;28;20451;-62
2023/06/14 03:57:10;;;;;;;0.70;0.70;;;;;;;13.04;71.67;99328.25;5033273;28;20037;-62
2023/06/14 03:59:39;;;;;;;0.50;0.50;;;;;;;13.07;71.28;99328.25;5031939;28;20048;-62
2023/06/14 04:02:09;;;;;;;0.40;0.40;;;;;;;13.13;71.17;99330.69;5033418;28;20051;-63
2023/06/14 04:04:37;;;;;;;;;;;;;;;13.12;71.59;99334.13;5033811;28;20049;-62
2023/06/14 04:07:08;;;;;;;0.40;0.40;;;;;;;13.18;71.29;99331.47;5032182;28;20363;-62
2023/06/14 04:09:38;;;;;;;0.45;0.45;;;;;;;13.27;71.36;99326.16;5032813;28;20052;-62
2023/06/14 04:12:08;;;;;;;0.63;0.53;;;;;;;13.28;71.24;99325.31;5032146;28;20083;-63
2023/06/14 04:14:39;;;;;;;0.63;0.63;;;;;;;13.23;71.22;99327.09;5015601;28;20075;-62
2023/06/14 04:17:10;;;;;;;1.75;1.02;;;;;;;13.30;71.12;99333.81;5032982;28;20049;-63
2023/06/14 04:19:41;;;;;;;0.50;0.50;;;;;;;13.40;71.02;99340.47;5031745;28;20091;-63
2023/06/14 04:22:11;;;;;;;0.50;0.50;;;;;;;13.49;70.78;99334.31;5032905;28;20042;-62
2023/06/14 04:24:42;;;;;;;0.50;0.50;;;;;;;13.58;70.43;99343.59;5033517;28;20136;-63
2023/06/14 04:27:13;;;;;;;0.65;0.65;;;;;;;13.73;69.92;99353.53;5032914;28;20500;-63
2023/06/14 04:29:45;;;;;;;1.27;0.98;;;;;;;13.89;69.57;99354.97;5031785;28;20041;-63
2023/06/14 04:32:14;;;;;;;0.60;0.60;;;;;;;13.95;69.42;99357.41;5033976;28;20045;-63
2023/06/14 04:34:43;;;;;;;0.90;0.90;;;;;;;14.07;69.38;99362.28;5034985;28;20075;-63
2023/06/14 04:37:13;;;;;;;;;;;;;;;14.07;69.20;99359.72;5035800;28;20049;-63
2023/06/14 04:39:43;;;;;;;0.90;0.90;;;;;;;14.22;68.81;99359.41;5036293;28;19992;-63
2023/06/14 04:42:14;;;;;;;0.40;0.40;;;;;;;14.36;68.86;99362.56;5035157;28;20079;-63
2023/06/14 04:44:47;;;;;;;0.47;0.47;;;;;;;14.54;68.50;99367.31;5036170;28;20049;-63
2023/06/14 04:47:16;;;;;;;0.45;0.45;;;;;;;14.65;68.22;99362.78;5036137;28;20052;-63
2023/06/14 04:49:45;;;;;;;0.47;0.47;;;;;;;14.72;67.82;99364.34;5035957;28;20041;-63
2023/06/14 04:52:15;;;;;;;0.68;0.68;;;;;;;14.86;67.46;99363.16;5035071;28;20049;-63
2023/06/14 04:54:46;;;;;;;0.68;0.68;;;;;;;14.98;67.50;99363.72;5035410;28;20046;-63
2023/06/14 04:57:22;;;;;;;0.30;0.30;;;;;;;15.15;66.50;99369.31;5035905;28;20048;-63
2023/06/14 04:59:57;;;;;;;0.73;0.73;;;;;;;15.23;65.49;99372.56;5035858;28;20046;-63
2023/06/14 05:02:27;;;;;;;2.05;1.08;;;;;;;15.21;64.59;99373.47;5034592;28;20072;-63
2023/06/14 05:04:57;;;;;;;1.40;0.93;;;;;;;14.97;64.69;99358.66;5034580;28;20049;-63
2023/06/14 05:07:26;;;;;;;1.23;0.93;;;;;;;15.07;64.89;99367.84;5034836;28;20318;-62
2023/06/14 05:09:55;;;;;;;0.60;0.60;;;;;;;15.11;65.07;99369.44;5034753;28;20054;-63
2023/06/14 05:12:24;;;;;;;0.38;0.38;;;;;;;15.04;64.91;99367.91;5035594;28;20050;-63
2023/06/14 05:14:55;;;;;;;0.43;0.40;;;;;;;15.10;64.62;99372.88;5034749;28;20051;-63
2023/06/14 05:17:24;;;;;;;0.45;0.45;;;;;;;15.15;64.81;99376.19;5034700;28;20045;-63
2023/06/14 05:19:53;;;;;;;0.20;0.20;;;;;;;15.26;64.99;99374.22;5035522;28;20053;-62
2023/06/14 05:22:22;;;;;;;0.63;0.63;;;;;;;15.58;64.78;99374.25;5035741;28;20344;-62
2023/06/14 05:24:51;;;;;;;0.80;0.75;;;;;;;15.86;64.43;99372.66;5035688;28;20045;-63
2023/06/14 05:27:20;;;;;;;0.50;0.50;;;;;;;16.04;64.10;99372.16;5035403;28;20048;-63
2023/06/14 05:29:49;;;;;;;0.53;0.53;;;;;;;16.12;63.99;99382.25;5035556;28;20038;-63
2023/06/14 05:32:21;;;;;;;0.60;0.60;;;;;;;16.25;63.58;99385.31;5035333;28;20042;-62
2023/06/14 05:34:50;;;;;;;0.70;0.70;;;;;;;16.28;62.87;99356.91;5035317;28;20057;-63
2023/06/14 05:37:19;;;;;;;3.57;1.90;;;;;;;16.54;62.59;99380.19;5035450;28;20095;-63
2023/06/14 05:39:48;;;;;;;0.40;0.40;;;;;;;16.65;62.54;99362.69;5035165;28;20400;-63
2023/06/14 05:42:16;;;;;;;0.40;0.40;;;;;;;16.86;61.66;99385.22;5034840;28;20426;-63
2023/06/14 05:44:45;;;;;;;0.67;0.67;;;;;;;16.70;61.52;99363.38;5035094;28;20446;-63
2023/06/14 05:47:14;;;;;;;3.30;1.40;;;;;;;16.82;61.45;99391.34;5035029;28;20474;-63
2023/06/14 05:49:45;;;;;;;0.53;0.53;;;;;;;16.61;61.62;99386.84;5035122;28;20515;-63
2023/06/14 05:52:13;;;;;;;0.90;0.90;;;;;;;16.42;61.86;99377.94;5035107;28;20053;-63
2023/06/14 05:54:42;;;;;;;8.55;1.30;;;;;;;16.52;62.20;99387.13;5034786;28;20488;-62
2023/06/14 05:57:11;;;;;;;0.80;0.80;;;;;;;16.52;62.25;99385.41;5034795;28;20055;-62
2023/06/14 05:59:41;;;;;;;0.68;0.68;;;;;;;16.59;62.41;99391.22;5035017;28;20653;-62
2023/06/14 06:02:10;;;;;;;0.60;0.60;;;;;;;16.72;62.36;99392.53;5035013;28;20041;-63
2023/06/14 06:04:39;;;;;;;0.60;0.60;;;;;;;16.82;62.20;99396.50;5034917;28;20829;-62
2023/06/14 06:07:09;;;;;;;0.60;0.50;;;;;;;16.51;61.90;99363.09;5033668;28;20391;-62
2023/06/14 06:09:38;;;;;;;0.57;0.50;;;;;;;16.69;61.63;99382.31;5034513;28;20491;-63
2023/06/14 06:12:08;;;;;;;0.60;0.60;;;;;;;16.82;61.54;99393.09;5034731;28;20056;-62
2023/06/14 06:14:37;;;;;;;;;;;;;;;16.89;61.57;99392.88;5035121;28;20050;-63
2023/06/14 06:17:06;;;;;;;1.33;1.23;;;;;;;16.93;61.34;99397.03;5034627;28;19921;-63
2023/06/14 06:19:35;;;;;;;;;;;;;;;17.05;61.18;99396.66;5034765;28;20045;-63
2023/06/14 06:22:06;;;;;;;0.60;0.60;;;;;;;17.08;61.17;99396.56;5034290;28;19925;-62
2023/06/14 06:24:36;;;;;;;1.17;0.80;;;;;;;17.14;60.87;99398.94;5034130;28;20092;-63
2023/06/14 06:27:07;;;;;;;1.00;0.85;;;;;;;17.16;61.33;99404.03;5034342;28;20053;-63
2023/06/14 06:29:36;;;;;;;0.35;0.35;;;;;;;17.21;61.69;99403.00;5034720;28;20562;-63
2023/06/14 06:32:06;;;;;;;0.47;0.47;;;;;;;17.26;61.77;99411.44;5034228;28;20037;-62
2023/06/14 06:34:35;;;;;;;0.50;0.50;;;;;;;17.20;61.43;99416.78;5034509;28;20056;-63
2023/06/14 06:37:04;;;;;;;0.75;0.75;;;;;;;17.18;61.59;99417.75;5034357;28;20136;-63
2023/06/14 06:39:33;;;;;;;0.60;0.60;;;;;;;17.22;61.70;99409.88;5034217;28;20507;-63
2023/06/14 06:42:03;;;;;;;1.02;0.90;;;;;;;17.11;61.97;99400.75;5034402;28;20042;-62
2023/06/14 06:44:38;;;;;;;6.40;1.95;;;;;;;17.22;61.96;99402.13;5033941;28;20100;-62
2023/06/14 06:47:09;;;;;;;1.58;1.40;;;;;;;17.33;61.89;99410.34;5032637;28;20072;-63
2023/06/14 06:49:38;;;;;;;2.38;1.17;;;;;;;17.36;61.88;99399.94;5034716;28;20494;-63
2023/06/14 06:52:08;;;;;;;0.47;0.47;;;;;;;17.48;61.66;99410.75;5033698;28;20057;-63
2023/06/14 06:54:37;;;;;;;0.40;0.40;;;;;;;17.36;61.61;99392.19;5033323;28;20139;-63
2023/06/14 06:57:08;;;;;;;0.50;0.50;;;;;;;17.52;61.73;99412.34;5033709;28;20072;-63
2023/06/14 06:59:37;;;;;;;0.73;0.73;;;;;;;17.55;61.21;99413.09;5033653;28;20128;-62
2023/06/14 07:02:07;;;;;;;1.90;1.20;;;;;;;17.50;61.19;99398.63;5033640;28;20048;-63
2023/06/14 07:04:36;;;;;;;0.60;0.60;;;;;;;17.70;61.04;99409.16;5033676;28;20132;-63
2023/06/14 07:07:05;;;;;;;;;;;;;;;17.75;60.51;99422.78;5034044;28;20049;-63
2023/06/14 07:09:34;;;;;;;1.83;0.65;;;;;;;17.83;60.22;99420.75;5033464;28;20371;-63
2023/06/14 07:12:03;;;;;;;0.50;0.50;;;;;;;17.98;59.66;99415.91;5033829;28;20514;-63
2023/06/14 07:14:33;;;;;;;0.60;0.60;;;;;;;18.07;58.81;99427.66;5033576;28;20060;-62
2023/06/14 07:17:02;;;;;;;0.40;0.40;;;;;;;18.08;58.53;99431.94;5033464;28;20046;-63
2023/06/14 07:19:31;;;;;;;0.70;0.70;;;;;;;18.11;58.36;99429.25;5033545;28;20053;-63
2023/06/14 07:22:00;;;;;;;0.50;0.50;;;;;;;18.07;58.46;99432.81;5033696;28;20050;-62
2023/06/14 07:24:29;;;;;;;0.80;0.80;;;;;;;18.08;58.37;99430.19;5032058;28;20388;-63
2023/06/14 07:26:58;;;;;;;0.55;0.55;;;;;;;18.16;57.67;99432.50;5033239;28;20049;-63
2023/06/14 07:29:26;;;;;;;0.68;0.65;;;;;;;18.38;57.43;99425.66;5032648;28;20052;-63
2023/06/14 07:31:57;;;;;;;0.80;0.80;;;;;;;18.50;57.40;99422.66;5033251;28;20060;-63
2023/06/14 07:34:26;;;;;;;0.63;0.60;;;;;;;18.68;57.29;99422.00;5033468;28;20633;-63
2023/06/14 07:36:54;;;;;;;0.60;0.60;;;;;;;18.89;57.37;99428.06;5032504;28;20049;-63
2023/06/14 07:39:23;;;;;;;0.55;0.55;;;;;;;18.95;56.93;99403.72;5033305;28;20052;-63
2023/06/14 07:41:52;;;;;;;0.52;0.50;;;;;;;19.17;57.02;99426.09;5031872;28;20440;-63
2023/06/14 07:44:21;;;;;;;0.70;0.70;;;;;;;19.06;57.79;99407.56;5032624;28;20041;-63
2023/06/14 07:46:50;;;;;;;0.40;0.40;;;;;;;19.36;58.12;99427.06;5033616;28;20095;-62
2023/06/14 07:49:20;;;;;;;0.95;0.80;;;;;;;19.37;57.72;99433.09;5033336;28;20400;-63
2023/06/14 07:51:51;;;;;;;0.50;0.50;;;;;;;19.18;57.76;99432.13;5033469;28;20046;-63
2023/06/14 07:54:20;;;;;;;0.88;0.82;;;;;;;18.98;57.81;99442.41;5032335;28;20063;-62
2023/06/14 07:56:50;;;;;;;0.82;0.82;;;;;;;18.90;58.28;99408.22;5031915;28;20420;-63
2023/06/14 07:59:19;;;;;;;0.52;0.47;;;;;;;19.01;58.75;99450.88;5033596;28;20096;-62
2023/06/14 08:01:48;;;;;;;1.48;1.25;;;;;;;19.18;58.99;99447.63;5033075;28;20053;-63
2023/06/14 08:04:16;;;;;;;0.60;0.60;;;;;;;19.45;58.88;99444.00;5031633;28;20042;-63
2023/06/14 08:06:47;;;;;;;0.75;0.75;;;;;;;19.71;58.77;99440.31;5035460;28;20045;-63
2023/06/14 08:09:17;;;;;;;0.55;0.55;;;;;;;19.99;58.11;99444.28;5036118;28;20052;-63
2023/06/14 08:11:46;;;;;;;1.58;0.77;;;;;;;20.23;57.81;99431.22;5036657;28;20095;-62
2023/06/14 08:14:15;;;;;;;0.45;0.45;;;;;;;20.55;58.58;99438.41;5035900;28;20049;-62
2023/06/14 08:16:43;;;;;;;1.60;0.50;;;;;;;20.52;57.39;99423.81;5036892;28;20553;-63
2023/06/14 08:19:12;;;;;;;0.63;0.63;;;;;;;20.45;57.46;99432.78;5036980;28;20069;-62
2023/06/14 08:21:42;;;;;;;1.47;1.00;;;;;;;20.30;57.19;99435.22;5036546;28;20049;-62
2023/06/14 08:24:13;;;;;;;1.08;0.73;;;;;;;20.41;57.70;99435.59;5035615;28;20306;-62
2023/06/14 08:26:43;;;;;;;8.40;1.13;;;;;;;20.62;57.27;99430.28;5036484;28;20504;-62
2023/06/14 08:29:11;;;;;;;0.57;0.57;;;;;;;20.78;57.21;99434.75;5036681;28;20038;-63
2023/06/14 08:31:40;;;;;;;1.13;1.05;;;;;;;20.88;55.77;99434.25;5035618;28;20037;-63
2023/06/14 08:34:09;;;;;;;1.03;0.93;;;;;;;20.99;55.99;99442.41;5035462;28;20057;-64
2023/06/14 08:36:38;;;;;;;0.80;0.80;;;;;;;21.03;55.67;99425.75;5036605;28;20278;-63
2023/06/14 08:39:11;;;;;;;0.80;0.70;;;;;;;21.20;55.47;99438.81;5036587;28;20128;-63
2023/06/14 08:41:41;;;;;;;0.60;0.45;;;;;;;21.16;54.85;99416.50;5035578;28;20075;-63
2023/06/14 08:44:09;;;;;;;0.30;0.30;;;;;;;21.35;54.47;99432.84;5036130;28;20111;-63
2023/06/14 08:46:38;;;;;;;0.32;0.32;;;;;;;21.44;53.35;99431.59;5036229;28;20057;-63
2023/06/14 08:49:09;;;;;;;0.50;0.50;;;;;;;21.60;53.47;99432.50;5036062;28;20049;-63
2023/06/14 08:51:40;;;;;;;0.73;0.73;;;;;;;21.77;52.52;99431.66;5035397;28;20088;-63
2023/06/14 08:54:12;;;;;;;0.40;0.40;;;;;;;21.84;52.74;99420.03;5036624;28;20439;-63
2023/06/14 08:56:43;;;;;;;1.30;1.13;;;;;;;21.81;51.75;99431.44;5036284;28;20049;-63
2023/06/14 08:59:13;;;;;;;0.50;0.50;;;;;;;21.75;51.40;99420.50;5036156;28;20041;-63
2023/06/14 09:01:42;;;;;;;0.70;0.60;;;;;;;21.95;52.27;99434.19;5034879;28;20072;-63
2023/06/14 09:04:32;;;;;;;0.60;0.60;;;;;;;22.02;52.12;99439.94;5036250;28;20045;-63
2023/06/14 09:07:01;;;;;;;1.08;0.82;;;;;;;21.96;51.15;99422.06;5036121;28;20103;-63
2023/06/14 09:09:32;;;;;;;1.02;0.93;;;;;;;22.26;51.15;99438.69;5035929;28;20052;-63
2023/06/14 09:12:01;;;;;;;1.83;0.88;;;;;;;22.29;50.72;99417.69;5033665;28;20091;-63
2023/06/14 09:14:30;;;;;;;0.60;0.60;;;;;;;22.54;49.43;99441.50;5034832;28;20049;-63
2023/06/14 09:16:58;;;;;;;0.47;0.47;;;;;;;22.57;48.86;99443.94;5035244;28;20434;-63
2023/06/14 09:19:29;;;;;;;0.60;0.60;;;;;;;22.56;48.23;99442.25;5035555;28;20060;-63
2023/06/14 09:21:58;;;;;;;1.10;0.80;;;;;;;22.65;48.03;99441.78;5034693;28;20503;-63
2023/06/14 09:24:27;;;;;;;0.63;0.63;;;;;;;22.63;48.45;99443.66;5035736;28;20057;-63
2023/06/14 09:26:58;;;;;;;0.80;0.80;;;;;;;22.57;48.68;99443.94;5035629;28;20491;-63
2023/06/14 09:29:27;;;;;;;0.50;0.50;;;;;;;22.70;49.40;99423.31;5035280;28;20052;-63
2023/06/14 09:31:56;;;;;;;0.73;0.73;;;;;;;22.99;49.71;99439.94;5034236;28;20179;-63
2023/06/14 09:34:25;;;;;;;0.80;0.65;;;;;;;23.03;49.06;99436.28;5035289;28;20053;-63
2023/06/14 09:36:55;;;;;;;0.40;0.40;;;;;;;22.82;48.83;99434.88;5035843;28;20051;-63
2023/06/14 09:39:24;;;;;;;0.50;0.50;;;;;;;22.96;49.83;99430.56;5035368;28;20760;-63
2023/06/14 09:41:55;;;;;;;0.50;0.50;;;;;;;23.02;50.16;99409.41;5034337;28;20048;-63
2023/06/14 09:44:28;;;;;;;0.32;0.32;;;;;;;23.21;50.04;99425.66;5034346;28;20048;-63
2023/06/14 09:46:57;;;;;;;0.60;0.60;;;;;;;22.81;49.69;99404.53;5035012;28;20088;-63
2023/06/14 09:49:26;;;;;;;0.93;0.80;;;;;;;23.04;49.54;99428.38;5034980;28;20080;-63
2023/06/14 09:52:00;;;;;;;0.70;0.70;;;;;;;23.01;49.42;99407.72;5033455;28;20136;-63
2023/06/14 09:54:30;;;;;;;0.73;0.73;;;;;;;23.31;49.55;99418.19;5034935;28;20049;-63
2023/06/14 09:57:00;;;;;;;0.70;0.70;;;;;;;23.33;49.55;99424.13;5034136;28;20045;-63
2023/06/14 09:59:34;;;;;;;1.05;0.90;;;;;;;23.39;51.03;99412.56;5035368;28;20072;-63
2023/06/14 10:02:14;;;;;;;0.60;0.60;;;;;;;23.42;48.98;99418.41;5034989;28;20049;-64
2023/06/14 10:04:50;;;;;;;0.57;0.57;;;;;;;23.45;47.90;99418.25;5034629;28;20103;-63
2023/06/14 10:07:21;;;;;;;0.50;0.50;;;;;;;23.32;48.33;99420.69;5034141;28;20041;-63
2023/06/14 10:09:51;;;;;;;0.50;0.50;;;;;;;23.15;47.12;99393.94;5034392;28;20057;-62
2023/06/14 10:12:22;;;;;;;0.93;0.77;;;;;;;23.53;47.67;99415.22;5033506;28;20045;-62
2023/06/14 10:14:54;;;;;;;2.13;1.77;;;;;;;23.82;47.48;99416.97;5034393;28;20060;-62
2023/06/14 10:17:38;;;;;;;0.68;0.68;;;;;;;23.41;46.46;99390.72;5034126;28;20080;-63
2023/06/14 10:20:27;;;;;;;0.60;0.60;;;;;;;23.46;45.85;99414.75;5032976;28;20462;-63
2023/06/14 10:23:03;;;;;;;0.57;0.57;;;;;;;23.57;45.98;99417.56;5034667;28;20053;-62
2023/06/14 10:25:32;;;;;;;0.70;0.70;;;;;;;23.48;45.83;99414.63;5034342;28;20045;-63
2023/06/14 10:28:17;;;;;;;0.63;0.60;;;;;;;23.61;46.04;99408.63;5031532;28;20099;-63
2023/06/14 10:31:05;;;;;;;1.23;0.98;;;;;;;23.80;46.77;99404.00;5034429;28;20419;-62
2023/06/14 10:33:36;;;;;;;1.23;0.57;;;;;;;23.62;47.01;99405.09;5034111;28;20064;-63
2023/06/14 10:36:30;;;;;;;0.82;0.70;;;;;;;23.80;47.51;99409.22;5033877;28;20514;-63
2023/06/14 10:39:02;;;;;;;0.82;0.82;;;;;;;23.97;47.07;99411.66;5032708;28;20051;-62
2023/06/14 10:41:32;;;;;;;0.57;0.57;;;;;;;24.18;46.01;99404.38;5034333;28;20045;-63
2023/06/14 10:44:11;;;;;;;;;;;;;;;24.02;44.42;99399.19;5034376;28;20041;-63
2023/06/14 10:46:41;;;;;;;0.70;0.70;;;;;;;24.05;44.25;99402.53;5034012;28;20292;-62
2023/06/14 10:49:13;;;;;;;0.40;0.40;;;;;;;24.17;44.79;99392.25;5032986;28;20048;-62
2023/06/14 10:51:46;;;;;;;0.80;0.80;;;;;;;24.26;44.56;99396.09;5033798;28;20046;-63
2023/06/14 10:54:15;;;;;;;0.68;0.60;;;;;;;24.26;44.09;99396.09;5033814;28;20048;-63
2023/06/14 10:56:48;;;;;;;0.60;0.60;;;;;;;24.25;43.88;99390.03;5033012;28;20053;-63
2023/06/14 10:59:17;;;;;;;0.50;0.50;;;;;;;24.29;42.61;99385.44;5032792;28;20041;-65
2023/06/14 11:01:56;;;;;;;;;;;;;;;24.42;43.14;99389.84;5034070;28;20053;-63
2023/06/14 11:04:35;;;;;;;0.68;0.68;;;;;;;24.45;43.20;99391.41;5033793;28;19972;-63
2023/06/14 11:07:21;;;;;;;3.00;0.88;;;;;;;24.57;42.93;99391.47;5032879;28;20045;-63
2023/06/14 11:10:07;;;;;;;0.50;0.50;;;;;;;24.47;42.57;99347.78;5033636;28;20041;-63
2023/06/14 11:12:37;;;;;;;1.15;1.02;;;;;;;24.59;41.66;99378.34;5033507;28;20099;-63
2023/06/14 11:15:07;;;;;;;0.55;0.55;;;;;;;24.63;41.50;99374.59;5033818;28;20491;-63
2023/06/14 11:17:37;;;;;;;0.40;0.40;;;;;;;24.67;41.31;99381.28;5032767;28;20049;-63
2023/06/14 11:20:10;;;;;;;0.88;0.70;;;;;;;24.67;40.70;99381.28;5033769;28;20045;-63
2023/06/14 11:22:43;;;;;;;0.43;0.43;;;;;;;24.50;40.53;99378.88;5033832;28;20526;-63
2023/06/14 11:25:12;;;;;;;0.57;0.57;;;;;;;24.50;41.20;99384.94;5033765;28;20395;-62
2023/06/14 11:27:43;;;;;;;0.68;0.63;;;;;;;24.47;40.50;99376.50;5032029;28;20042;-62
2023/06/14 11:30:14;;;;;;;0.45;0.45;;;;;;;24.61;40.18;99376.47;5033437;28;20053;-63
2023/06/14 11:32:47;;;;;;;0.50;0.50;;;;;;;24.66;39.65;99371.78;5033313;28;20119;-63
2023/06/14 11:35:17;;;;;;;2.00;1.15;;;;;;;24.71;39.49;99382.78;5033195;28;20084;-63
2023/06/14 11:37:47;;;;;;;1.48;1.10;;;;;;;24.87;39.13;99377.44;5032687;28;20045;-63
2023/06/14 11:40:16;;;;;;;0.55;0.55;;;;;;;24.94;38.41;99371.75;5034542;28;20072;-63
2023/06/14 11:42:45;;;;;;;0.50;0.50;;;;;;;25.16;38.75;99374.66;5036144;28;20052;-63
2023/06/14 11:45:14;;;;;;;0.50;0.50;;;;;;;25.34;38.29;99363.94;5036350;28;20048;-63
2023/06/14 11:47:43;;;;;;;0.35;0.35;;;;;;;25.53;37.33;99373.06;5037262;28;20053;-63
2023/06/14 11:50:13;;;;;;;0.55;0.55;;;;;;;25.72;37.51;99373.50;5035638;28;20050;-62
2023/06/14 11:52:42;;;;;;;0.70;0.65;;;;;;;25.78;36.69;99377.50;5037502;28;20088;-62